This is the latest recevied weather packets stored in our database for station/object WA6ODQ-13. If no packets are shown the sender has not sent any weather packets the latest 10 day(s).
| Time | Temp. | Humidity | Pressure | Rain* | Wind** | Luminosity | Snow |
|---|---|---|---|---|---|---|---|
| 1777438997 | 16.67° C | 70% | 1016.2 hPa | 0 mm | - | 0 W/m² | - |
| 1777438695 | 17.22° C | 69% | 1016.1 hPa | 0 mm | - | 0 W/m² | - |
| 1777438391 | 17.22° C | 68% | 1016.2 hPa | 0 mm | - | 0 W/m² | - |
| 1777438087 | 17.22° C | 66% | 1016.5 hPa | 0 mm | - | 0 W/m² | - |
| 1777437783 | 17.78° C | 66% | 1016.2 hPa | 0 mm | - | 0 W/m² | - |
| 1777437479 | 17.78° C | 65% | 1016.2 hPa | 0 mm | - | 0 W/m² | - |
| 1777437176 | 17.78° C | 64% | 1016.2 hPa | 0 mm | - | 0 W/m² | - |
| 1777436873 | 17.78° C | 63% | 1016.5 hPa | 0 mm | - | 0 W/m² | - |
| 1777436570 | 17.78° C | 63% | 1016.3 hPa | 0 mm | - | 0 W/m² | - |
| 1777436266 | 17.78° C | 64% | 1016.3 hPa | 0 mm | - | 0 W/m² | - |
| 1777435659 | 18.33° C | 62% | 1016.4 hPa | 0 mm | - | 0 W/m² | - |
| 1777435355 | 18.33° C | 62% | 1016.2 hPa | 0 mm | - | 0 W/m² | - |
| 1777435054 | 18.33° C | 62% | 1016.3 hPa | 0 mm | - | 0 W/m² | - |
| 1777434751 | 18.33° C | 62% | 1016 hPa | 0 mm | - | 0 W/m² | - |
| 1777434449 | 18.33° C | 62% | 1016 hPa | 0 mm | - | 0 W/m² | - |
| 1777434148 | 18.33° C | 62% | 1016 hPa | 0 mm | - | 0 W/m² | - |
| 1777433844 | 18.33° C | 63% | 1016 hPa | 0 mm | - | 0 W/m² | - |
| 1777433541 | 18.89° C | 63% | 1016 hPa | 0 mm | - | 0 W/m² | - |
| 1777432938 | 18.89° C | 62% | 1015.9 hPa | 0 mm | - | 0 W/m² | - |
| 1777432637 | 18.89° C | 62% | 1015.8 hPa | 0 mm | - | 0 W/m² | - |
| 1777432335 | 19.44° C | 61% | 1015.8 hPa | 0 mm | - | 0 W/m² | - |
| 1777430205 | 20° C | 59% | 1015.4 hPa | 0 mm | - | 14 W/m² | - |
| 1777429598 | 20.56° C | 59% | 1015.5 hPa | 0 mm | - | 22 W/m² | - |
| 1777427471 | 21.67° C | 54% | 1015.6 hPa | 0 mm | - | 68 W/m² | - |
| 1777425039 | 23.33° C | 43% | 1015.9 hPa | 0 mm | - | 150 W/m² | - |
* Rain latest hour (hover to see other rain measurements)
** Current wind speed in m/s (hover to see current wind gust speed)